sensor_id;sensor_type;location;lat;lon;timestamp;P1;durP1;ratioP1;P2;durP2;ratioP2
23129;SDS011;11734;51.046;13.778;2022-12-13T00:01:44;13.80;;;9.77;;
23129;SDS011;11734;51.046;13.778;2022-12-13T00:04:12;14.47;;;9.93;;
23129;SDS011;11734;51.046;13.778;2022-12-13T00:06:39;14.47;;;9.97;;
23129;SDS011;11734;51.046;13.778;2022-12-13T00:09:06;13.63;;;9.17;;
23129;SDS011;11734;51.046;13.778;2022-12-13T00:11:34;13.93;;;9.43;;
23129;SDS011;11734;51.046;13.778;2022-12-13T00:14:01;14.10;;;9.70;;
23129;SDS011;11734;51.046;13.778;2022-12-13T00:16:27;14.80;;;9.50;;
23129;SDS011;11734;51.046;13.778;2022-12-13T00:18:56;11.93;;;8.73;;
23129;SDS011;11734;51.046;13.778;2022-12-13T00:21:28;12.40;;;8.83;;
23129;SDS011;11734;51.046;13.778;2022-12-13T00:23:56;13.00;;;8.90;;
23129;SDS011;11734;51.046;13.778;2022-12-13T00:26:26;12.17;;;8.47;;
23129;SDS011;11734;51.046;13.778;2022-12-13T00:28:55;11.57;;;8.67;;
23129;SDS011;11734;51.046;13.778;2022-12-13T00:31:23;12.83;;;9.17;;
23129;SDS011;11734;51.046;13.778;2022-12-13T00:34:11;12.47;;;8.83;;
23129;SDS011;11734;51.046;13.778;2022-12-13T00:36:37;12.10;;;8.63;;
23129;SDS011;11734;51.046;13.778;2022-12-13T00:39:04;14.70;;;10.23;;
23129;SDS011;11734;51.046;13.778;2022-12-13T00:41:32;12.20;;;8.87;;
23129;SDS011;11734;51.046;13.778;2022-12-13T00:44:01;13.33;;;8.97;;
23129;SDS011;11734;51.046;13.778;2022-12-13T00:46:28;13.20;;;8.60;;
23129;SDS011;11734;51.046;13.778;2022-12-13T00:48:56;13.27;;;9.10;;
23129;SDS011;11734;51.046;13.778;2022-12-13T00:51:25;12.57;;;8.70;;
23129;SDS011;11734;51.046;13.778;2022-12-13T00:53:54;12.73;;;8.80;;
23129;SDS011;11734;51.046;13.778;2022-12-13T00:56:22;11.67;;;8.53;;
23129;SDS011;11734;51.046;13.778;2022-12-13T00:58:51;11.40;;;8.43;;
23129;SDS011;11734;51.046;13.778;2022-12-13T01:01:19;13.87;;;9.03;;
23129;SDS011;11734;51.046;13.778;2022-12-13T01:03:48;14.57;;;8.70;;
23129;SDS011;11734;51.046;13.778;2022-12-13T01:06:27;12.43;;;8.70;;
23129;SDS011;11734;51.046;13.778;2022-12-13T01:08:56;13.03;;;8.87;;
23129;SDS011;11734;51.046;13.778;2022-12-13T01:11:23;11.03;;;7.90;;
23129;SDS011;11734;51.046;13.778;2022-12-13T01:18:05;12.47;;;8.67;;
23129;SDS011;11734;51.046;13.778;2022-12-13T01:20:32;13.93;;;8.47;;
23129;SDS011;11734;51.046;13.778;2022-12-13T01:22:59;12.80;;;8.70;;
23129;SDS011;11734;51.046;13.778;2022-12-13T01:25:26;13.30;;;9.10;;
23129;SDS011;11734;51.046;13.778;2022-12-13T01:27:53;12.47;;;9.27;;
23129;SDS011;11734;51.046;13.778;2022-12-13T01:30:20;13.17;;;8.60;;
23129;SDS011;11734;51.046;13.778;2022-12-13T01:32:47;13.63;;;9.17;;
23129;SDS011;11734;51.046;13.778;2022-12-13T01:35:14;12.70;;;9.43;;
23129;SDS011;11734;51.046;13.778;2022-12-13T01:37:41;12.43;;;8.77;;
23129;SDS011;11734;51.046;13.778;2022-12-13T01:40:09;13.40;;;9.17;;
23129;SDS011;11734;51.046;13.778;2022-12-13T01:42:42;13.93;;;9.73;;
23129;SDS011;11734;51.046;13.778;2022-12-13T01:45:22;13.17;;;9.10;;
23129;SDS011;11734;51.046;13.778;2022-12-13T01:47:55;13.03;;;9.03;;
23129;SDS011;11734;51.046;13.778;2022-12-13T01:50:45;13.17;;;8.47;;
23129;SDS011;11734;51.046;13.778;2022-12-13T01:53:19;11.33;;;8.43;;
23129;SDS011;11734;51.046;13.778;2022-12-13T01:55:51;13.53;;;9.57;;
23129;SDS011;11734;51.046;13.778;2022-12-13T01:58:21;14.87;;;9.53;;
23129;SDS011;11734;51.046;13.778;2022-12-13T02:00:49;13.53;;;9.50;;
23129;SDS011;11734;51.046;13.778;2022-12-13T02:03:16;12.33;;;8.70;;
23129;SDS011;11734;51.046;13.778;2022-12-13T02:08:26;15.23;;;9.63;;
23129;SDS011;11734;51.046;13.778;2022-12-13T02:10:55;10.70;;;8.10;;
23129;SDS011;11734;51.046;13.778;2022-12-13T02:13:23;13.03;;;8.73;;
23129;SDS011;11734;51.046;13.778;2022-12-13T02:16:13;12.87;;;9.53;;
23129;SDS011;11734;51.046;13.778;2022-12-13T02:21:45;12.80;;;8.73;;
23129;SDS011;11734;51.046;13.778;2022-12-13T02:27:20;12.93;;;8.73;;
23129;SDS011;11734;51.046;13.778;2022-12-13T02:33:03;14.70;;;9.30;;
23129;SDS011;11734;51.046;13.778;2022-12-13T02:38:14;12.57;;;8.70;;
23129;SDS011;11734;51.046;13.778;2022-12-13T02:46:27;12.60;;;8.60;;
23129;SDS011;11734;51.046;13.778;2022-12-13T02:49:58;12.33;;;8.73;;
23129;SDS011;11734;51.046;13.778;2022-12-13T02:52:28;12.07;;;8.67;;
23129;SDS011;11734;51.046;13.778;2022-12-13T02:54:57;13.23;;;9.10;;
23129;SDS011;11734;51.046;13.778;2022-12-13T03:00:23;12.10;;;8.73;;
23129;SDS011;11734;51.046;13.778;2022-12-13T03:03:16;14.13;;;9.30;;
23129;SDS011;11734;51.046;13.778;2022-12-13T03:14:48;15.43;;;9.57;;
23129;SDS011;11734;51.046;13.778;2022-12-13T03:17:21;15.17;;;9.33;;
23129;SDS011;11734;51.046;13.778;2022-12-13T03:19:51;16.27;;;10.03;;
23129;SDS011;11734;51.046;13.778;2022-12-13T03:22:19;16.33;;;10.73;;
23129;SDS011;11734;51.046;13.778;2022-12-13T03:24:46;14.03;;;9.97;;
23129;SDS011;11734;51.046;13.778;2022-12-13T03:27:12;14.57;;;10.00;;
23129;SDS011;11734;51.046;13.778;2022-12-13T03:29:39;14.83;;;10.27;;
23129;SDS011;11734;51.046;13.778;2022-12-13T03:32:06;14.40;;;9.60;;
23129;SDS011;11734;51.046;13.778;2022-12-13T03:34:33;14.47;;;9.50;;
23129;SDS011;11734;51.046;13.778;2022-12-13T03:37:10;12.70;;;9.60;;
23129;SDS011;11734;51.046;13.778;2022-12-13T03:39:37;16.63;;;10.37;;
23129;SDS011;11734;51.046;13.778;2022-12-13T03:42:04;14.17;;;9.57;;
23129;SDS011;11734;51.046;13.778;2022-12-13T03:44:31;13.63;;;9.50;;
23129;SDS011;11734;51.046;13.778;2022-12-13T03:46:58;15.37;;;9.60;;
23129;SDS011;11734;51.046;13.778;2022-12-13T03:49:26;16.23;;;10.40;;
23129;SDS011;11734;51.046;13.778;2022-12-13T03:52:01;16.83;;;9.90;;
23129;SDS011;11734;51.046;13.778;2022-12-13T03:54:28;12.73;;;9.07;;
23129;SDS011;11734;51.046;13.778;2022-12-13T03:56:54;13.13;;;9.43;;
23129;SDS011;11734;51.046;13.778;2022-12-13T03:59:21;14.43;;;9.50;;
23129;SDS011;11734;51.046;13.778;2022-12-13T04:01:48;14.77;;;9.83;;
23129;SDS011;11734;51.046;13.778;2022-12-13T04:04:15;12.63;;;9.00;;
23129;SDS011;11734;51.046;13.778;2022-12-13T04:06:42;13.90;;;9.47;;
23129;SDS011;11734;51.046;13.778;2022-12-13T04:09:09;13.43;;;9.33;;
23129;SDS011;11734;51.046;13.778;2022-12-13T04:11:36;15.30;;;10.50;;
23129;SDS011;11734;51.046;13.778;2022-12-13T04:14:21;15.90;;;10.83;;
23129;SDS011;11734;51.046;13.778;2022-12-13T04:16:49;13.70;;;10.10;;
23129;SDS011;11734;51.046;13.778;2022-12-13T04:19:18;17.27;;;11.57;;
23129;SDS011;11734;51.046;13.778;2022-12-13T04:21:49;16.13;;;10.60;;
23129;SDS011;11734;51.046;13.778;2022-12-13T04:24:16;16.27;;;10.67;;
23129;SDS011;11734;51.046;13.778;2022-12-13T04:26:43;14.67;;;10.30;;
23129;SDS011;11734;51.046;13.778;2022-12-13T04:29:10;15.57;;;11.17;;
23129;SDS011;11734;51.046;13.778;2022-12-13T04:31:38;15.73;;;11.10;;
23129;SDS011;11734;51.046;13.778;2022-12-13T04:34:05;14.90;;;11.00;;
23129;SDS011;11734;51.046;13.778;2022-12-13T04:36:32;15.57;;;11.33;;
23129;SDS011;11734;51.046;13.778;2022-12-13T04:39:00;17.03;;;11.43;;
23129;SDS011;11734;51.046;13.778;2022-12-13T04:41:28;16.87;;;11.53;;
23129;SDS011;11734;51.046;13.778;2022-12-13T04:44:00;18.57;;;11.87;;
23129;SDS011;11734;51.046;13.778;2022-12-13T04:46:28;15.43;;;11.13;;
23129;SDS011;11734;51.046;13.778;2022-12-13T04:48:55;17.77;;;11.87;;
23129;SDS011;11734;51.046;13.778;2022-12-13T04:51:23;17.30;;;11.27;;
23129;SDS011;11734;51.046;13.778;2022-12-13T04:53:50;16.83;;;11.57;;
23129;SDS011;11734;51.046;13.778;2022-12-13T04:56:17;16.53;;;11.23;;
23129;SDS011;11734;51.046;13.778;2022-12-13T04:58:44;17.80;;;11.73;;
23129;SDS011;11734;51.046;13.778;2022-12-13T05:01:11;14.47;;;11.40;;
23129;SDS011;11734;51.046;13.778;2022-12-13T05:03:39;17.30;;;11.57;;
23129;SDS011;11734;51.046;13.778;2022-12-13T05:06:10;16.70;;;12.00;;
23129;SDS011;11734;51.046;13.778;2022-12-13T05:08:52;17.93;;;11.90;;
23129;SDS011;11734;51.046;13.778;2022-12-13T05:11:20;17.50;;;11.70;;
23129;SDS011;11734;51.046;13.778;2022-12-13T05:13:48;23.77;;;13.93;;
23129;SDS011;11734;51.046;13.778;2022-12-13T05:16:15;24.23;;;15.07;;
23129;SDS011;11734;51.046;13.778;2022-12-13T05:18:49;22.63;;;14.00;;
23129;SDS011;11734;51.046;13.778;2022-12-13T05:21:17;20.23;;;13.33;;
23129;SDS011;11734;51.046;13.778;2022-12-13T05:23:43;18.50;;;12.53;;
23129;SDS011;11734;51.046;13.778;2022-12-13T05:26:10;19.70;;;12.40;;
23129;SDS011;11734;51.046;13.778;2022-12-13T05:28:37;16.30;;;11.03;;
23129;SDS011;11734;51.046;13.778;2022-12-13T05:31:06;15.93;;;11.07;;
23129;SDS011;11734;51.046;13.778;2022-12-13T05:33:52;16.20;;;11.10;;
23129;SDS011;11734;51.046;13.778;2022-12-13T05:36:26;36.17;;;22.57;;
23129;SDS011;11734;51.046;13.778;2022-12-13T05:38:54;39.67;;;25.47;;
23129;SDS011;11734;51.046;13.778;2022-12-13T05:41:22;32.60;;;21.63;;
23129;SDS011;11734;51.046;13.778;2022-12-13T05:43:50;20.53;;;12.40;;
23129;SDS011;11734;51.046;13.778;2022-12-13T05:46:17;18.43;;;11.60;;
23129;SDS011;11734;51.046;13.778;2022-12-13T05:48:44;17.67;;;11.80;;
23129;SDS011;11734;51.046;13.778;2022-12-13T05:51:11;18.83;;;11.83;;
23129;SDS011;11734;51.046;13.778;2022-12-13T05:53:39;17.30;;;12.10;;
23129;SDS011;11734;51.046;13.778;2022-12-13T05:56:07;17.77;;;12.00;;
23129;SDS011;11734;51.046;13.778;2022-12-13T05:58:35;19.50;;;12.23;;
23129;SDS011;11734;51.046;13.778;2022-12-13T06:01:08;18.23;;;11.80;;
23129;SDS011;11734;51.046;13.778;2022-12-13T06:03:38;19.40;;;12.47;;
23129;SDS011;11734;51.046;13.778;2022-12-13T06:06:24;21.23;;;13.10;;
23129;SDS011;11734;51.046;13.778;2022-12-13T06:08:51;19.53;;;11.87;;
23129;SDS011;11734;51.046;13.778;2022-12-13T06:11:18;18.70;;;12.50;;
23129;SDS011;11734;51.046;13.778;2022-12-13T06:13:57;19.50;;;12.67;;
23129;SDS011;11734;51.046;13.778;2022-12-13T06:16:26;30.10;;;17.53;;
23129;SDS011;11734;51.046;13.778;2022-12-13T06:18:54;24.07;;;14.80;;
23129;SDS011;11734;51.046;13.778;2022-12-13T06:21:28;23.90;;;15.00;;
23129;SDS011;11734;51.046;13.778;2022-12-13T06:24:11;21.97;;;14.07;;
23129;SDS011;11734;51.046;13.778;2022-12-13T06:26:57;19.60;;;12.60;;
23129;SDS011;11734;51.046;13.778;2022-12-13T06:29:25;20.80;;;13.53;;
23129;SDS011;11734;51.046;13.778;2022-12-13T06:31:52;20.53;;;13.37;;
23129;SDS011;11734;51.046;13.778;2022-12-13T06:34:29;20.63;;;13.07;;
23129;SDS011;11734;51.046;13.778;2022-12-13T06:36:57;20.90;;;13.23;;
23129;SDS011;11734;51.046;13.778;2022-12-13T06:39:26;21.10;;;13.60;;
23129;SDS011;11734;51.046;13.778;2022-12-13T06:41:58;19.53;;;12.43;;
23129;SDS011;11734;51.046;13.778;2022-12-13T06:44:26;21.83;;;13.23;;
23129;SDS011;11734;51.046;13.778;2022-12-13T06:46:53;20.43;;;13.37;;
23129;SDS011;11734;51.046;13.778;2022-12-13T06:49:38;19.33;;;12.90;;
23129;SDS011;11734;51.046;13.778;2022-12-13T06:52:10;20.13;;;13.17;;
23129;SDS011;11734;51.046;13.778;2022-12-13T06:54:39;20.67;;;13.60;;
23129;SDS011;11734;51.046;13.778;2022-12-13T06:57:06;20.30;;;13.07;;
23129;SDS011;11734;51.046;13.778;2022-12-13T07:02:19;22.00;;;13.87;;
23129;SDS011;11734;51.046;13.778;2022-12-13T07:04:51;23.63;;;13.90;;
23129;SDS011;11734;51.046;13.778;2022-12-13T07:07:18;22.83;;;14.10;;
23129;SDS011;11734;51.046;13.778;2022-12-13T07:09:45;22.27;;;14.03;;
23129;SDS011;11734;51.046;13.778;2022-12-13T07:12:12;23.13;;;14.23;;
23129;SDS011;11734;51.046;13.778;2022-12-13T07:14:39;20.50;;;13.13;;
23129;SDS011;11734;51.046;13.778;2022-12-13T07:17:06;21.20;;;13.70;;
23129;SDS011;11734;51.046;13.778;2022-12-13T07:19:33;26.60;;;14.00;;
23129;SDS011;11734;51.046;13.778;2022-12-13T07:22:02;21.17;;;13.53;;
23129;SDS011;11734;51.046;13.778;2022-12-13T07:24:31;22.40;;;13.53;;
23129;SDS011;11734;51.046;13.778;2022-12-13T07:27:00;20.00;;;13.27;;
23129;SDS011;11734;51.046;13.778;2022-12-13T07:29:27;23.90;;;14.47;;
23129;SDS011;11734;51.046;13.778;2022-12-13T07:31:54;23.73;;;13.47;;
23129;SDS011;11734;51.046;13.778;2022-12-13T07:34:27;22.93;;;14.07;;
23129;SDS011;11734;51.046;13.778;2022-12-13T07:36:55;21.93;;;13.47;;
23129;SDS011;11734;51.046;13.778;2022-12-13T07:39:23;22.10;;;13.50;;
23129;SDS011;11734;51.046;13.778;2022-12-13T07:41:53;21.40;;;13.20;;
23129;SDS011;11734;51.046;13.778;2022-12-13T07:44:20;22.33;;;13.53;;
23129;SDS011;11734;51.046;13.778;2022-12-13T07:46:48;20.33;;;13.03;;
23129;SDS011;11734;51.046;13.778;2022-12-13T07:49:15;21.00;;;12.93;;
23129;SDS011;11734;51.046;13.778;2022-12-13T07:51:42;22.00;;;12.87;;
23129;SDS011;11734;51.046;13.778;2022-12-13T07:54:09;24.53;;;13.67;;
23129;SDS011;11734;51.046;13.778;2022-12-13T07:56:36;23.53;;;14.17;;
23129;SDS011;11734;51.046;13.778;2022-12-13T07:59:03;20.83;;;13.13;;
23129;SDS011;11734;51.046;13.778;2022-12-13T08:01:31;19.43;;;12.33;;
23129;SDS011;11734;51.046;13.778;2022-12-13T08:04:01;20.93;;;12.77;;
23129;SDS011;11734;51.046;13.778;2022-12-13T08:06:33;20.23;;;11.83;;
23129;SDS011;11734;51.046;13.778;2022-12-13T08:09:01;19.90;;;11.80;;
23129;SDS011;11734;51.046;13.778;2022-12-13T08:11:29;18.60;;;12.00;;
23129;SDS011;11734;51.046;13.778;2022-12-13T08:13:56;18.10;;;11.93;;
23129;SDS011;11734;51.046;13.778;2022-12-13T08:16:23;18.60;;;11.93;;
23129;SDS011;11734;51.046;13.778;2022-12-13T08:18:57;19.77;;;11.47;;
23129;SDS011;11734;51.046;13.778;2022-12-13T08:21:33;18.67;;;11.60;;
23129;SDS011;11734;51.046;13.778;2022-12-13T08:24:24;17.57;;;10.87;;
23129;SDS011;11734;51.046;13.778;2022-12-13T08:26:53;16.93;;;10.43;;
23129;SDS011;11734;51.046;13.778;2022-12-13T08:29:22;17.17;;;10.50;;
23129;SDS011;11734;51.046;13.778;2022-12-13T08:32:10;17.97;;;11.57;;
23129;SDS011;11734;51.046;13.778;2022-12-13T08:34:38;17.63;;;11.13;;
23129;SDS011;11734;51.046;13.778;2022-12-13T08:37:06;16.63;;;10.83;;
23129;SDS011;11734;51.046;13.778;2022-12-13T08:39:34;15.03;;;10.83;;
23129;SDS011;11734;51.046;13.778;2022-12-13T08:42:14;19.63;;;12.30;;
23129;SDS011;11734;51.046;13.778;2022-12-13T08:44:45;18.40;;;11.40;;
23129;SDS011;11734;51.046;13.778;2022-12-13T08:47:14;16.27;;;10.90;;
23129;SDS011;11734;51.046;13.778;2022-12-13T08:49:50;16.80;;;10.27;;
23129;SDS011;11734;51.046;13.778;2022-12-13T08:52:32;18.40;;;11.07;;
23129;SDS011;11734;51.046;13.778;2022-12-13T08:55:06;17.00;;;10.50;;
23129;SDS011;11734;51.046;13.778;2022-12-13T08:57:35;18.00;;;11.20;;
23129;SDS011;11734;51.046;13.778;2022-12-13T09:00:03;19.03;;;11.53;;
23129;SDS011;11734;51.046;13.778;2022-12-13T09:02:31;18.53;;;11.60;;
23129;SDS011;11734;51.046;13.778;2022-12-13T09:05:04;19.43;;;12.13;;
23129;SDS011;11734;51.046;13.778;2022-12-13T09:07:33;18.23;;;11.27;;
23129;SDS011;11734;51.046;13.778;2022-12-13T09:10:02;17.13;;;11.27;;
23129;SDS011;11734;51.046;13.778;2022-12-13T09:12:50;20.17;;;12.60;;
23129;SDS011;11734;51.046;13.778;2022-12-13T09:15:27;20.23;;;12.00;;
23129;SDS011;11734;51.046;13.778;2022-12-13T09:18:00;18.77;;;12.07;;
23129;SDS011;11734;51.046;13.778;2022-12-13T09:20:31;20.93;;;12.20;;
23129;SDS011;11734;51.046;13.778;2022-12-13T09:23:07;18.40;;;11.97;;
23129;SDS011;11734;51.046;13.778;2022-12-13T09:25:55;17.00;;;10.97;;
23129;SDS011;11734;51.046;13.778;2022-12-13T09:28:31;18.07;;;11.17;;
23129;SDS011;11734;51.046;13.778;2022-12-13T09:31:00;18.37;;;11.33;;
23129;SDS011;11734;51.046;13.778;2022-12-13T09:33:31;18.20;;;11.00;;
23129;SDS011;11734;51.046;13.778;2022-12-13T09:36:07;19.90;;;11.67;;
23129;SDS011;11734;51.046;13.778;2022-12-13T09:38:36;17.70;;;10.90;;
23129;SDS011;11734;51.046;13.778;2022-12-13T09:43:46;16.43;;;10.10;;
23129;SDS011;11734;51.046;13.778;2022-12-13T09:46:28;15.27;;;9.33;;
23129;SDS011;11734;51.046;13.778;2022-12-13T09:49:14;16.43;;;10.30;;
23129;SDS011;11734;51.046;13.778;2022-12-13T09:51:52;16.50;;;10.87;;
23129;SDS011;11734;51.046;13.778;2022-12-13T09:54:36;16.17;;;10.20;;
23129;SDS011;11734;51.046;13.778;2022-12-13T09:57:17;15.87;;;9.97;;
23129;SDS011;11734;51.046;13.778;2022-12-13T10:00:05;14.60;;;9.20;;
23129;SDS011;11734;51.046;13.778;2022-12-13T10:02:46;16.30;;;10.10;;
23129;SDS011;11734;51.046;13.778;2022-12-13T10:05:24;15.43;;;9.80;;
23129;SDS011;11734;51.046;13.778;2022-12-13T10:08:22;15.17;;;9.53;;
23129;SDS011;11734;51.046;13.778;2022-12-13T10:10:52;14.60;;;9.50;;
23129;SDS011;11734;51.046;13.778;2022-12-13T10:13:39;14.90;;;9.47;;
23129;SDS011;11734;51.046;13.778;2022-12-13T10:16:30;13.93;;;9.43;;
23129;SDS011;11734;51.046;13.778;2022-12-13T10:19:11;16.20;;;9.93;;
23129;SDS011;11734;51.046;13.778;2022-12-13T10:21:56;14.50;;;9.70;;
23129;SDS011;11734;51.046;13.778;2022-12-13T10:24:29;14.20;;;9.40;;
23129;SDS011;11734;51.046;13.778;2022-12-13T10:27:20;14.87;;;9.10;;
23129;SDS011;11734;51.046;13.778;2022-12-13T10:32:58;12.90;;;9.30;;
23129;SDS011;11734;51.046;13.778;2022-12-13T10:35:29;14.87;;;9.63;;
23129;SDS011;11734;51.046;13.778;2022-12-13T10:38:00;15.57;;;9.30;;
23129;SDS011;11734;51.046;13.778;2022-12-13T10:40:46;15.57;;;9.53;;
23129;SDS011;11734;51.046;13.778;2022-12-13T10:43:21;13.97;;;9.37;;
23129;SDS011;11734;51.046;13.778;2022-12-13T10:48:56;13.27;;;8.73;;
23129;SDS011;11734;51.046;13.778;2022-12-13T10:54:03;12.60;;;8.43;;
23129;SDS011;11734;51.046;13.778;2022-12-13T10:56:33;12.60;;;8.70;;
23129;SDS011;11734;51.046;13.778;2022-12-13T11:01:57;10.47;;;7.57;;
23129;SDS011;11734;51.046;13.778;2022-12-13T11:04:29;10.63;;;7.90;;
23129;SDS011;11734;51.046;13.778;2022-12-13T11:07:01;10.63;;;7.20;;
23129;SDS011;11734;51.046;13.778;2022-12-13T11:09:37;9.97;;;7.27;;
23129;SDS011;11734;51.046;13.778;2022-12-13T11:12:12;8.67;;;6.90;;
23129;SDS011;11734;51.046;13.778;2022-12-13T11:14:54;10.97;;;7.50;;
23129;SDS011;11734;51.046;13.778;2022-12-13T11:17:44;10.27;;;7.37;;
23129;SDS011;11734;51.046;13.778;2022-12-13T11:20:20;10.30;;;7.43;;
23129;SDS011;11734;51.046;13.778;2022-12-13T11:22:48;10.63;;;7.80;;
23129;SDS011;11734;51.046;13.778;2022-12-13T11:25:20;9.07;;;7.23;;
23129;SDS011;11734;51.046;13.778;2022-12-13T11:36:10;10.37;;;7.67;;
23129;SDS011;11734;51.046;13.778;2022-12-13T11:44:18;9.17;;;7.23;;
23129;SDS011;11734;51.046;13.778;2022-12-13T11:46:51;9.00;;;7.03;;
23129;SDS011;11734;51.046;13.778;2022-12-13T11:49:27;8.30;;;6.77;;
23129;SDS011;11734;51.046;13.778;2022-12-13T11:54:58;8.33;;;6.73;;
23129;SDS011;11734;51.046;13.778;2022-12-13T12:00:05;7.50;;;6.60;;
23129;SDS011;11734;51.046;13.778;2022-12-13T12:03:01;8.37;;;7.33;;
23129;SDS011;11734;51.046;13.778;2022-12-13T12:05:33;7.80;;;6.43;;
23129;SDS011;11734;51.046;13.778;2022-12-13T12:13:55;9.20;;;7.47;;
23129;SDS011;11734;51.046;13.778;2022-12-13T12:16:32;8.87;;;7.30;;
23129;SDS011;11734;51.046;13.778;2022-12-13T12:19:02;11.93;;;8.37;;
23129;SDS011;11734;51.046;13.778;2022-12-13T12:26:59;9.70;;;7.53;;
23129;SDS011;11734;51.046;13.778;2022-12-13T12:29:38;11.23;;;7.43;;
23129;SDS011;11734;51.046;13.778;2022-12-13T12:34:47;9.10;;;6.97;;
23129;SDS011;11734;51.046;13.778;2022-12-13T12:37:23;8.13;;;6.67;;
23129;SDS011;11734;51.046;13.778;2022-12-13T12:42:49;8.70;;;6.57;;
23129;SDS011;11734;51.046;13.778;2022-12-13T12:45:44;11.07;;;6.87;;
23129;SDS011;11734;51.046;13.778;2022-12-13T12:51:51;10.40;;;6.93;;
23129;SDS011;11734;51.046;13.778;2022-12-13T12:54:26;8.10;;;5.93;;
23129;SDS011;11734;51.046;13.778;2022-12-13T12:59:58;9.53;;;6.47;;
23129;SDS011;11734;51.046;13.778;2022-12-13T13:02:30;9.93;;;6.73;;
23129;SDS011;11734;51.046;13.778;2022-12-13T13:05:12;9.67;;;6.70;;
23129;SDS011;11734;51.046;13.778;2022-12-13T13:07:43;9.33;;;6.20;;
23129;SDS011;11734;51.046;13.778;2022-12-13T13:10:17;7.87;;;6.10;;
23129;SDS011;11734;51.046;13.778;2022-12-13T13:12:52;8.03;;;5.43;;
23129;SDS011;11734;51.046;13.778;2022-12-13T13:18:41;8.40;;;5.40;;
23129;SDS011;11734;51.046;13.778;2022-12-13T13:23:47;8.07;;;5.50;;
23129;SDS011;11734;51.046;13.778;2022-12-13T13:26:26;10.17;;;6.60;;
23129;SDS011;11734;51.046;13.778;2022-12-13T13:40:48;8.03;;;5.87;;
23129;SDS011;11734;51.046;13.778;2022-12-13T13:43:16;6.80;;;5.43;;
23129;SDS011;11734;51.046;13.778;2022-12-13T14:00:57;8.37;;;5.47;;
23129;SDS011;11734;51.046;13.778;2022-12-13T14:30:59;10.43;;;7.43;;
23129;SDS011;11734;51.046;13.778;2022-12-13T14:33:26;10.73;;;7.40;;
23129;SDS011;11734;51.046;13.778;2022-12-13T14:35:56;9.90;;;7.30;;
23129;SDS011;11734;51.046;13.778;2022-12-13T14:38:24;10.40;;;7.57;;
23129;SDS011;11734;51.046;13.778;2022-12-13T14:40:54;9.87;;;6.97;;
23129;SDS011;11734;51.046;13.778;2022-12-13T14:43:23;9.60;;;7.00;;
23129;SDS011;11734;51.046;13.778;2022-12-13T14:45:55;11.47;;;7.27;;
23129;SDS011;11734;51.046;13.778;2022-12-13T14:48:52;11.73;;;8.00;;
23129;SDS011;11734;51.046;13.778;2022-12-13T14:51:23;10.47;;;7.43;;
23129;SDS011;11734;51.046;13.778;2022-12-13T14:53:51;9.60;;;7.67;;
23129;SDS011;11734;51.046;13.778;2022-12-13T14:56:19;11.10;;;7.37;;
23129;SDS011;11734;51.046;13.778;2022-12-13T15:04:14;12.20;;;7.43;;
23129;SDS011;11734;51.046;13.778;2022-12-13T15:09:39;10.27;;;7.60;;
23129;SDS011;11734;51.046;13.778;2022-12-13T15:12:12;10.90;;;7.73;;
23129;SDS011;11734;51.046;13.778;2022-12-13T15:17:29;12.80;;;8.20;;
23129;SDS011;11734;51.046;13.778;2022-12-13T15:20:00;14.70;;;8.73;;
23129;SDS011;11734;51.046;13.778;2022-12-13T15:22:46;12.27;;;8.10;;
23129;SDS011;11734;51.046;13.778;2022-12-13T15:25:19;13.67;;;8.93;;
23129;SDS011;11734;51.046;13.778;2022-12-13T15:27:52;13.63;;;9.20;;
23129;SDS011;11734;51.046;13.778;2022-12-13T15:30:20;12.67;;;9.30;;
23129;SDS011;11734;51.046;13.778;2022-12-13T15:33:06;15.97;;;9.10;;
23129;SDS011;11734;51.046;13.778;2022-12-13T15:35:46;13.90;;;9.47;;
23129;SDS011;11734;51.046;13.778;2022-12-13T15:38:16;14.33;;;9.50;;
23129;SDS011;11734;51.046;13.778;2022-12-13T15:40:54;14.67;;;9.50;;
23129;SDS011;11734;51.046;13.778;2022-12-13T15:43:24;14.87;;;9.93;;
23129;SDS011;11734;51.046;13.778;2022-12-13T15:45:58;14.20;;;9.03;;
23129;SDS011;11734;51.046;13.778;2022-12-13T15:59:41;19.53;;;12.27;;
23129;SDS011;11734;51.046;13.778;2022-12-13T16:02:17;18.50;;;12.67;;
23129;SDS011;11734;51.046;13.778;2022-12-13T16:04:49;21.00;;;13.40;;
23129;SDS011;11734;51.046;13.778;2022-12-13T16:07:28;19.90;;;13.13;;
23129;SDS011;11734;51.046;13.778;2022-12-13T16:10:05;19.83;;;13.33;;
23129;SDS011;11734;51.046;13.778;2022-12-13T16:12:38;18.60;;;12.60;;
23129;SDS011;11734;51.046;13.778;2022-12-13T16:15:21;19.77;;;13.23;;
23129;SDS011;11734;51.046;13.778;2022-12-13T16:20:59;21.43;;;14.27;;
23129;SDS011;11734;51.046;13.778;2022-12-13T16:23:26;22.07;;;14.87;;
23129;SDS011;11734;51.046;13.778;2022-12-13T16:25:53;25.13;;;16.03;;
23129;SDS011;11734;51.046;13.778;2022-12-13T16:28:39;22.70;;;15.07;;
23129;SDS011;11734;51.046;13.778;2022-12-13T16:31:20;22.23;;;14.23;;
23129;SDS011;11734;51.046;13.778;2022-12-13T16:33:48;21.10;;;13.37;;
23129;SDS011;11734;51.046;13.778;2022-12-13T16:36:15;21.47;;;14.27;;
23129;SDS011;11734;51.046;13.778;2022-12-13T16:38:43;20.33;;;14.30;;
23129;SDS011;11734;51.046;13.778;2022-12-13T16:41:10;23.10;;;14.20;;
23129;SDS011;11734;51.046;13.778;2022-12-13T16:43:39;22.93;;;14.70;;
23129;SDS011;11734;51.046;13.778;2022-12-13T16:46:17;22.77;;;14.83;;
23129;SDS011;11734;51.046;13.778;2022-12-13T16:49:15;25.30;;;17.60;;
23129;SDS011;11734;51.046;13.778;2022-12-13T16:51:50;24.53;;;16.20;;
23129;SDS011;11734;51.046;13.778;2022-12-13T16:54:17;21.70;;;13.93;;
23129;SDS011;11734;51.046;13.778;2022-12-13T16:56:45;21.87;;;13.93;;
23129;SDS011;11734;51.046;13.778;2022-12-13T16:59:13;20.43;;;13.33;;
23129;SDS011;11734;51.046;13.778;2022-12-13T17:01:42;20.83;;;13.77;;
23129;SDS011;11734;51.046;13.778;2022-12-13T17:06:56;26.83;;;15.23;;
23129;SDS011;11734;51.046;13.778;2022-12-13T17:09:23;21.03;;;13.33;;
23129;SDS011;11734;51.046;13.778;2022-12-13T17:11:50;21.90;;;14.10;;
23129;SDS011;11734;51.046;13.778;2022-12-13T17:14:17;21.37;;;14.20;;
23129;SDS011;11734;51.046;13.778;2022-12-13T17:16:44;24.67;;;14.97;;
23129;SDS011;11734;51.046;13.778;2022-12-13T17:19:11;22.97;;;15.03;;
23129;SDS011;11734;51.046;13.778;2022-12-13T17:21:40;22.60;;;14.63;;
23129;SDS011;11734;51.046;13.778;2022-12-13T17:24:07;24.50;;;15.30;;
23129;SDS011;11734;51.046;13.778;2022-12-13T17:26:34;23.90;;;15.57;;
23129;SDS011;11734;51.046;13.778;2022-12-13T17:29:01;25.70;;;15.63;;
23129;SDS011;11734;51.046;13.778;2022-12-13T17:31:30;24.10;;;15.37;;
23129;SDS011;11734;51.046;13.778;2022-12-13T17:34:02;23.70;;;15.50;;
23129;SDS011;11734;51.046;13.778;2022-12-13T17:36:29;24.80;;;15.77;;
23129;SDS011;11734;51.046;13.778;2022-12-13T17:38:57;26.77;;;16.03;;
23129;SDS011;11734;51.046;13.778;2022-12-13T17:41:24;24.10;;;15.17;;
23129;SDS011;11734;51.046;13.778;2022-12-13T17:43:51;25.87;;;16.00;;
23129;SDS011;11734;51.046;13.778;2022-12-13T17:46:18;68.53;;;39.47;;
23129;SDS011;11734;51.046;13.778;2022-12-13T17:48:47;29.80;;;20.33;;